Maersk Wolfsburg — VRGP3 — position and weather

sailwx.info

Track history (hours):
 
Tides and Currents Weather Stations Pressure Air Temp Water Temp Dewpoint Dewpoint Depression Visibility Wind Speed Wind Dir Waves Ship Positions

Maersk Wolfsburg

Last reported at 2017-Dec-17 03:43 UTC. Time now 2017-Dec-17 15:34 UTC.
Position N 31°40' W 080°18'.

Length 175 m; draft 8.4 m.

Type: Ship (hazmat cat A). MMSI: 477742500.

Date/timePositionNaut miles runAvg speedWind from/ knotsBaromVisibWave heightAir tempDewpointWater temp
2017-Dec-17 03:43N 31°40' W 080°18'516.5
2017-Dec-17 03:25N 31°45' W 080°20'4 9.8
2017-Dec-17 03:00N 31°47' W 080°24'10 9.7
2017-Dec-17 02:00N 31°53' W 080°33'5 9.4
2017-Dec-17 01:30N 31°55' W 080°38'5 9.1
2017-Dec-17 01:00N 31°57' W 080°43'612.5
2017-Dec-17 00:30N 32°01' W 080°48'612.2
2017-Dec-17 00:01N 32°02' W 080°55'611.6
2017-Dec-16 23:30N 32°06' W 081°01'4 8.4
2017-Dec-16 23:00N 32°05' W 081°06'2 5.0
2017-Dec-16 22:31N 32°07' W 081°08'0 0.0
2017-Dec-16 21:56N 32°07' W 081°08'0 0.0
2017-Dec-16 21:26N 32°07' W 081°08'0 0.0
2017-Dec-16 20:56N 32°07' W 081°08'0 0.0
2017-Dec-16 20:26N 32°07' W 081°08'0 0.0
2017-Dec-16 19:56N 32°07' W 081°08'0 0.0
2017-Dec-16 19:26N 32°07' W 081°08'0 0.0
2017-Dec-16 18:56N 32°07' W 081°08'0 0.0
2017-Dec-16 18:26N 32°07' W 081°08'0 0.0
2017-Dec-16 17:56N 32°07' W 081°08'0 0.0
2017-Dec-16 17:26N 32°07' W 081°08'0 0.0
2017-Dec-16 16:56N 32°07' W 081°08'0 0.0
2017-Dec-16 16:26N 32°07' W 081°08'0 0.0
2017-Dec-16 15:56N 32°07' W 081°08'0 0.0
2017-Dec-16 15:26N 32°07' W 081°08'0 0.0
2017-Dec-16 14:56N 32°07' W 081°08'0 0.0
2017-Dec-16 14:26N 32°07' W 081°08'0 0.0
2017-Dec-16 13:56N 32°07' W 081°08'0 0.0
2017-Dec-16 13:26N 32°07' W 081°08'0 0.0
2017-Dec-16 12:56N 32°07' W 081°08'0 0.0
2017-Dec-16 12:26N 32°07' W 081°08'0 0.0
2017-Dec-16 11:56N 32°07' W 081°08'0 0.0
2017-Dec-16 11:26N 32°07' W 081°08'0 0.0
2017-Dec-16 10:56N 32°07' W 081°08'0 0.0
2017-Dec-16 10:30N 32°07' W 081°08'1 1.1
2017-Dec-16 10:00N 32°08' W 081°08'3 5.7
2017-Dec-16 09:30N 32°05' W 081°06'3 6.2
2017-Dec-16 09:00N 32°05' W 081°02'4 7.2
2017-Dec-16 08:30N 32°04' W 080°58'611.7
2017-Dec-16 08:00N 32°02' W 080°52'714.6
2017-Dec-16 07:30N 31°59' W 080°44'5 9.6
2017-Dec-16 07:01N 31°56' W 080°40'2 4.2
2017-Dec-16 06:30N 31°55' W 080°37'3 6.0
2017-Dec-16 05:58N 31°54' W 080°34'3 5.6
2017-Dec-16 05:30N 31°53' W 080°31'0 0.8
2017-Dec-16 05:00N 31°53' W 080°32'1 2.7
2017-Dec-16 04:31N 31°53' W 080°30'2 4.6
2017-Dec-16 04:00N 31°53' W 080°27'3 5.3
2017-Dec-16 03:27N 31°54' W 080°24'1 0.5
2017-Dec-16 01:33N 31°54' W 080°25'0 2.1
2017-Dec-16 01:30N 31°54' W 080°25'1 1.8
2017-Dec-16 01:00N 31°54' W 080°26'1 1.8
2017-Dec-16 00:30N 31°54' W 080°27'1 1.6
2017-Dec-16 00:00N 31°53' W 080°28'1 1.4
2017-Dec-15 23:30N 31°53' W 080°29'1 1.2
2017-Dec-15 23:00N 31°53' W 080°30'1 1.1
2017-Dec-15 22:30N 31°53' W 080°30'0 0.9
2017-Dec-15 21:59N 31°53' W 080°31'0 0.8
2017-Dec-15 21:30N 31°53' W 080°31'0 0.6
2017-Dec-15 21:00N 31°52' W 080°31'0 0.5
2017-Dec-15 20:31N 31°52' W 080°32'1 2.3
2017-Dec-15 19:59N 31°53' W 080°30'5 6.5
2017-Dec-15 19:13N 31°56' W 080°26'1 6.3
2017-Dec-15 19:00N 31°57' W 080°24'3 6.3
2017-Dec-15 18:28N 31°59' W 080°21'3 6.5
2017-Dec-15 18:01N 32°00' W 080°18'1 2.2
2017-Dec-15 17:30N 32°01' W 080°18'0 0.5
2017-Dec-15 16:58N 32°01' W 080°18'0 0.6
2017-Dec-15 16:30N 32°01' W 080°18'0 0.7
2017-Dec-15 15:59N 32°01' W 080°18'0 0.8
2017-Dec-15 15:30N 32°01' W 080°19'0 0.9
2017-Dec-15 15:00N 32°00' W 080°19'1 1.0
2017-Dec-15 14:31N 32°00' W 080°20'1 1.1
2017-Dec-15 14:00N 32°00' W 080°21'1 1.2
2017-Dec-15 13:30N 32°00' W 080°21'1 1.1
2017-Dec-15 13:00N 32°00' W 080°22'1 1.1
2017-Dec-15 12:30N 32°00' W 080°23'1 1.1
2017-Dec-15 12:00N 31°60' W 080°23'1 1.0
2017-Dec-15 11:30N 31°60' W 080°24'0 1.0
2017-Dec-15 11:00N 31°59' W 080°24'0 0.8
2017-Dec-15 10:30N 31°59' W 080°25'0 0.8
2017-Dec-15 10:00N 31°59' W 080°25'0 0.7
2017-Dec-15 09:24N 31°58' W 080°25'0 0.6
2017-Dec-15 09:00N 31°58' W 080°25'1 0.7
2017-Dec-15 08:13N 31°58' W 080°25'0 0.7
2017-Dec-15 07:49N 31°57' W 080°26'0 0.7
2017-Dec-15 07:30N 31°57' W 080°26'0 0.7
2017-Dec-15 07:01N 31°57' W 080°26'0 0.7
2017-Dec-15 06:31N 31°57' W 080°26'0 0.6
2017-Dec-15 06:00N 31°56' W 080°26'0 0.5
2017-Dec-15 05:30N 31°56' W 080°26'0 0.6
2017-Dec-15 05:01N 31°56' W 080°26'0 0.8
2017-Dec-15 04:30N 31°56' W 080°26'2 4.4
2017-Dec-15 03:59N 31°57' W 080°23'182 8.2
2017-Dec-14 05:44N 34°11' W 077°57'1 3.2
2017-Dec-14 05:30N 34°12' W 077°57'0 0.0
2017-Dec-13 22:17N 34°12' W 077°57'312 6.9
2017-Dec-12 00:49N 38°50' W 075°04'412.3
2017-Dec-12 00:29N 38°54' W 075°05'816.4
2017-Dec-12 00:00N 39°02' W 075°09'815.1
2017-Dec-11 23:31N 39°08' W 075°14'612.3
2017-Dec-11 23:01N 39°14' W 075°18'815.0
2017-Dec-11 22:30N 39°19' W 075°24'714.1
2017-Dec-11 22:01N 39°25' W 075°30'510.3
2017-Dec-11 21:30N 39°29' W 075°34'510.1
2017-Dec-11 21:00N 39°34' W 075°33'510.2
2017-Dec-11 20:30N 39°39' W 075°33'612.2
2017-Dec-11 20:00N 39°45' W 075°30'611.0
2017-Dec-11 19:30N 39°48' W 075°25'4 7.9
2017-Dec-11 19:00N 39°51' W 075°20'5 9.6
2017-Dec-11 18:31N 39°51' W 075°14'4 7.7
2017-Dec-11 18:00N 39°53' W 075°10'2 3.1
2017-Dec-11 17:28N 39°54' W 075°08'0 0.0
2017-Dec-11 16:58N 39°54' W 075°08'0 0.0
2017-Dec-11 16:28N 39°54' W 075°08'0 0.0
2017-Dec-11 15:58N 39°54' W 075°08'0 0.0
2017-Dec-11 15:28N 39°54' W 075°08'0 0.0
2017-Dec-11 14:55N 39°54' W 075°08'0 0.0
2017-Dec-11 14:28N 39°54' W 075°08'0 0.0
2017-Dec-11 13:58N 39°54' W 075°08'0 0.0
2017-Dec-11 13:28N 39°54' W 075°08'0 0.0
2017-Dec-11 12:58N 39°54' W 075°08'0 0.0
2017-Dec-11 12:28N 39°54' W 075°08'0 0.0
2017-Dec-11 11:58N 39°54' W 075°08'0 0.0
2017-Dec-11 11:28N 39°54' W 075°08'1 1.4
2017-Dec-11 11:00N 39°53' W 075°08'3 6.0
2017-Dec-11 10:30N 39°53' W 075°12'4 8.5
2017-Dec-11 10:00N 39°51' W 075°17'4 8.7
2017-Dec-11 09:30N 39°50' W 075°22'4 8.9
2017-Dec-11 09:00N 39°47' W 075°27'611.6
2017-Dec-11 08:30N 39°42' W 075°31'713.2
2017-Dec-11 08:00N 39°36' W 075°34'713.9
2017-Dec-11 07:31N 39°29' W 075°34'713.7
2017-Dec-11 07:00N 39°23' W 075°29'713.9
2017-Dec-11 06:30N 39°18' W 075°23'714.1
2017-Dec-11 06:00N 39°13' W 075°17'713.8
2017-Dec-11 05:31N 39°07' W 075°13'714.3
2017-Dec-11 05:00N 39°00' W 075°08'815.6
2017-Dec-11 04:30N 38°53' W 075°05'510.2
2017-Dec-11 04:00N 38°48' W 075°03'3 6.0
2017-Dec-11 03:30N 38°46' W 074°60'5 5.3
2017-Dec-11 02:33N 38°43' W 074°55'116 4.9
2017-Dec-10 03:06N 36°56' W 075°52'1 7.2
2017-Dec-10 03:00N 36°56' W 075°53'4 7.7
2017-Dec-10 02:30N 36°56' W 075°58'510.3
2017-Dec-10 02:01N 36°58' W 076°04'816.6
2017-Dec-10 01:30N 37°00' W 076°14'612.3
2017-Dec-10 01:00N 36°57' W 076°20'5 9.2
2017-Dec-10 00:30N 36°52' W 076°20'1 1.5
2017-Dec-10 00:00N 36°51' W 076°20'0 0.0
2017-Dec-09 23:30N 36°51' W 076°20'0 0.0
2017-Dec-09 23:00N 36°51' W 076°20'0 0.0
2017-Dec-09 22:30N 36°51' W 076°20'0 0.0
2017-Dec-09 22:00N 36°51' W 076°20'0 0.0
2017-Dec-09 21:30N 36°51' W 076°20'0 0.0
2017-Dec-09 21:00N 36°51' W 076°20'0 0.0
2017-Dec-09 20:30N 36°51' W 076°20'0 0.0
2017-Dec-09 20:00N 36°51' W 076°20'0 0.0
2017-Dec-09 19:30N 36°51' W 076°20'0 0.0
2017-Dec-09 19:00N 36°51' W 076°20'0 0.0
2017-Dec-09 18:30N 36°51' W 076°20'0 0.0
2017-Dec-09 17:57N 36°51' W 076°20'0 0.0
2017-Dec-09 17:30N 36°51' W 076°20'0 0.0
2017-Dec-09 17:00N 36°51' W 076°20'0 0.0
2017-Dec-09 16:30N 36°51' W 076°20'0 0.0
2017-Dec-09 16:00N 36°51' W 076°20'0 0.0
2017-Dec-09 15:30N 36°51' W 076°20'0 0.0
2017-Dec-09 15:00N 36°51' W 076°20'0 0.0
2017-Dec-09 14:30N 36°51' W 076°20'0 0.0
2017-Dec-09 14:00N 36°51' W 076°20'0 0.0
2017-Dec-09 13:30N 36°51' W 076°20'0 0.0
2017-Dec-09 13:00N 36°51' W 076°20'0 0.0
2017-Dec-09 12:30N 36°51' W 076°20'0 0.0
2017-Dec-09 12:00N 36°51' W 076°20'0 0.0
2017-Dec-09 11:30N 36°51' W 076°20'0 0.0
2017-Dec-09 11:00N 36°51' W 076°20'0 0.0
2017-Dec-09 10:30N 36°51' W 076°20'0 0.0
2017-Dec-09 10:00N 36°51' W 076°20'1 2.6
2017-Dec-09 09:30N 36°53' W 076°20'5 9.6
2017-Dec-09 09:00N 36°58' W 076°20'711.0
2017-Dec-09 08:21N 36°60' W 076°12'616.4
2017-Dec-09 08:00N 36°58' W 076°05'713.0
2017-Dec-09 07:30N 36°56' W 075°57'3 5.6
2017-Dec-09 07:00N 36°55' W 075°54'2 5.1
2017-Dec-09 06:30N 36°53' W 075°52'3 6.4
2017-Dec-09 05:58N 36°51' W 075°48'3 6.1
2017-Dec-09 05:28N 36°49' W 075°45'191 5.9
2017-Dec-07 21:21N 34°12' W 077°57'0 0.1
2017-Dec-07 19:46N 34°11' W 077°57'0 0.0
2017-Dec-07 15:58N 34°11' W 077°57'  
Track history (hours):
 
Tides and Currents Weather Stations Pressure Air Temp Water Temp Dewpoint Dewpoint Depression Visibility Wind Speed Wind Dir Waves Ship Positions

Maersk Wolfsburg

Last reported at 2017-Dec-17 03:43 UTC. Time now 2017-Dec-17 15:34 UTC.
Position N 31°40' W 080°18'.

Length 175 m; draft 8.4 m.

Type: Ship (hazmat cat A). MMSI: 477742500.

Date/timePositionNaut miles runAvg speedWind from/ knotsBaromVisibWave heightAir tempDewpointWater temp
2017-Dec-17 03:43N 31°40' W 080°18'516.5
2017-Dec-17 03:25N 31°45' W 080°20'4 9.8
2017-Dec-17 03:00N 31°47' W 080°24'10 9.7
2017-Dec-17 02:00N 31°53' W 080°33'5 9.4
2017-Dec-17 01:30N 31°55' W 080°38'5 9.1
2017-Dec-17 01:00N 31°57' W 080°43'612.5
2017-Dec-17 00:30N 32°01' W 080°48'612.2
2017-Dec-17 00:01N 32°02' W 080°55'611.6
2017-Dec-16 23:30N 32°06' W 081°01'4 8.4
2017-Dec-16 23:00N 32°05' W 081°06'2 5.0
2017-Dec-16 22:31N 32°07' W 081°08'0 0.0
2017-Dec-16 21:56N 32°07' W 081°08'0 0.0
2017-Dec-16 21:26N 32°07' W 081°08'0 0.0
2017-Dec-16 20:56N 32°07' W 081°08'0 0.0
2017-Dec-16 20:26N 32°07' W 081°08'0 0.0
2017-Dec-16 19:56N 32°07' W 081°08'0 0.0
2017-Dec-16 19:26N 32°07' W 081°08'0 0.0
2017-Dec-16 18:56N 32°07' W 081°08'0 0.0
2017-Dec-16 18:26N 32°07' W 081°08'0 0.0
2017-Dec-16 17:56N 32°07' W 081°08'0 0.0
2017-Dec-16 17:26N 32°07' W 081°08'0 0.0
2017-Dec-16 16:56N 32°07' W 081°08'0 0.0
2017-Dec-16 16:26N 32°07' W 081°08'0 0.0
2017-Dec-16 15:56N 32°07' W 081°08'0 0.0
2017-Dec-16 15:26N 32°07' W 081°08'0 0.0
2017-Dec-16 14:56N 32°07' W 081°08'0 0.0
2017-Dec-16 14:26N 32°07' W 081°08'0 0.0
2017-Dec-16 13:56N 32°07' W 081°08'0 0.0
2017-Dec-16 13:26N 32°07' W 081°08'0 0.0
2017-Dec-16 12:56N 32°07' W 081°08'0 0.0
2017-Dec-16 12:26N 32°07' W 081°08'0 0.0
2017-Dec-16 11:56N 32°07' W 081°08'0 0.0
2017-Dec-16 11:26N 32°07' W 081°08'0 0.0
2017-Dec-16 10:56N 32°07' W 081°08'0 0.0
2017-Dec-16 10:30N 32°07' W 081°08'1 1.1
2017-Dec-16 10:00N 32°08' W 081°08'3 5.7
2017-Dec-16 09:30N 32°05' W 081°06'3 6.2
2017-Dec-16 09:00N 32°05' W 081°02'4 7.2
2017-Dec-16 08:30N 32°04' W 080°58'611.7
2017-Dec-16 08:00N 32°02' W 080°52'714.6
2017-Dec-16 07:30N 31°59' W 080°44'5 9.6
2017-Dec-16 07:01N 31°56' W 080°40'2 4.2
2017-Dec-16 06:30N 31°55' W 080°37'3 6.0
2017-Dec-16 05:58N 31°54' W 080°34'3 5.6
2017-Dec-16 05:30N 31°53' W 080°31'0 0.8
2017-Dec-16 05:00N 31°53' W 080°32'1 2.7
2017-Dec-16 04:31N 31°53' W 080°30'2 4.6
2017-Dec-16 04:00N 31°53' W 080°27'3 5.3
2017-Dec-16 03:27N 31°54' W 080°24'1 0.5
2017-Dec-16 01:33N 31°54' W 080°25'0 2.1
2017-Dec-16 01:30N 31°54' W 080°25'1 1.8
2017-Dec-16 01:00N 31°54' W 080°26'1 1.8
2017-Dec-16 00:30N 31°54' W 080°27'1 1.6
2017-Dec-16 00:00N 31°53' W 080°28'1 1.4
2017-Dec-15 23:30N 31°53' W 080°29'1 1.2
2017-Dec-15 23:00N 31°53' W 080°30'1 1.1
2017-Dec-15 22:30N 31°53' W 080°30'0 0.9
2017-Dec-15 21:59N 31°53' W 080°31'0 0.8
2017-Dec-15 21:30N 31°53' W 080°31'0 0.6
2017-Dec-15 21:00N 31°52' W 080°31'0 0.5
2017-Dec-15 20:31N 31°52' W 080°32'1 2.3
2017-Dec-15 19:59N 31°53' W 080°30'5 6.5
2017-Dec-15 19:13N 31°56' W 080°26'1 6.3
2017-Dec-15 19:00N 31°57' W 080°24'3 6.3
2017-Dec-15 18:28N 31°59' W 080°21'3 6.5
2017-Dec-15 18:01N 32°00' W 080°18'1 2.2
2017-Dec-15 17:30N 32°01' W 080°18'0 0.5
2017-Dec-15 16:58N 32°01' W 080°18'0 0.6
2017-Dec-15 16:30N 32°01' W 080°18'0 0.7
2017-Dec-15 15:59N 32°01' W 080°18'0 0.8
2017-Dec-15 15:30N 32°01' W 080°19'0 0.9
2017-Dec-15 15:00N 32°00' W 080°19'1 1.0
2017-Dec-15 14:31N 32°00' W 080°20'1 1.1
2017-Dec-15 14:00N 32°00' W 080°21'1 1.2
2017-Dec-15 13:30N 32°00' W 080°21'1 1.1
2017-Dec-15 13:00N 32°00' W 080°22'1 1.1
2017-Dec-15 12:30N 32°00' W 080°23'1 1.1
2017-Dec-15 12:00N 31°60' W 080°23'1 1.0
2017-Dec-15 11:30N 31°60' W 080°24'0 1.0
2017-Dec-15 11:00N 31°59' W 080°24'0 0.8
2017-Dec-15 10:30N 31°59' W 080°25'0 0.8
2017-Dec-15 10:00N 31°59' W 080°25'0 0.7
2017-Dec-15 09:24N 31°58' W 080°25'0 0.6
2017-Dec-15 09:00N 31°58' W 080°25'1 0.7
2017-Dec-15 08:13N 31°58' W 080°25'0 0.7
2017-Dec-15 07:49N 31°57' W 080°26'0 0.7
2017-Dec-15 07:30N 31°57' W 080°26'0 0.7
2017-Dec-15 07:01N 31°57' W 080°26'0 0.7
2017-Dec-15 06:31N 31°57' W 080°26'0 0.6
2017-Dec-15 06:00N 31°56' W 080°26'0 0.5
2017-Dec-15 05:30N 31°56' W 080°26'0 0.6
2017-Dec-15 05:01N 31°56' W 080°26'0 0.8
2017-Dec-15 04:30N 31°56' W 080°26'2 4.4
2017-Dec-15 03:59N 31°57' W 080°23'182 8.2
2017-Dec-14 05:44N 34°11' W 077°57'1 3.2
2017-Dec-14 05:30N 34°12' W 077°57'0 0.0
2017-Dec-13 22:17N 34°12' W 077°57'312 6.9
2017-Dec-12 00:49N 38°50' W 075°04'412.3
2017-Dec-12 00:29N 38°54' W 075°05'816.4
2017-Dec-12 00:00N 39°02' W 075°09'815.1
2017-Dec-11 23:31N 39°08' W 075°14'612.3
2017-Dec-11 23:01N 39°14' W 075°18'815.0
2017-Dec-11 22:30N 39°19' W 075°24'714.1
2017-Dec-11 22:01N 39°25' W 075°30'510.3
2017-Dec-11 21:30N 39°29' W 075°34'510.1
2017-Dec-11 21:00N 39°34' W 075°33'510.2
2017-Dec-11 20:30N 39°39' W 075°33'612.2
2017-Dec-11 20:00N 39°45' W 075°30'611.0
2017-Dec-11 19:30N 39°48' W 075°25'4 7.9
2017-Dec-11 19:00N 39°51' W 075°20'5 9.6
2017-Dec-11 18:31N 39°51' W 075°14'4 7.7
2017-Dec-11 18:00N 39°53' W 075°10'2 3.1
2017-Dec-11 17:28N 39°54' W 075°08'0 0.0
2017-Dec-11 16:58N 39°54' W 075°08'0 0.0
2017-Dec-11 16:28N 39°54' W 075°08'0 0.0
2017-Dec-11 15:58N 39°54' W 075°08'0 0.0
2017-Dec-11 15:28N 39°54' W 075°08'0 0.0
2017-Dec-11 14:55N 39°54' W 075°08'0 0.0
2017-Dec-11 14:28N 39°54' W 075°08'0 0.0
2017-Dec-11 13:58N 39°54' W 075°08'0 0.0
2017-Dec-11 13:28N 39°54' W 075°08'0 0.0
2017-Dec-11 12:58N 39°54' W 075°08'0 0.0
2017-Dec-11 12:28N 39°54' W 075°08'0 0.0
2017-Dec-11 11:58N 39°54' W 075°08'0 0.0
2017-Dec-11 11:28N 39°54' W 075°08'1 1.4
2017-Dec-11 11:00N 39°53' W 075°08'3 6.0
2017-Dec-11 10:30N 39°53' W 075°12'4 8.5
2017-Dec-11 10:00N 39°51' W 075°17'4 8.7
2017-Dec-11 09:30N 39°50' W 075°22'4 8.9
2017-Dec-11 09:00N 39°47' W 075°27'611.6
2017-Dec-11 08:30N 39°42' W 075°31'713.2
2017-Dec-11 08:00N 39°36' W 075°34'713.9
2017-Dec-11 07:31N 39°29' W 075°34'713.7
2017-Dec-11 07:00N 39°23' W 075°29'713.9
2017-Dec-11 06:30N 39°18' W 075°23'714.1
2017-Dec-11 06:00N 39°13' W 075°17'713.8
2017-Dec-11 05:31N 39°07' W 075°13'714.3
2017-Dec-11 05:00N 39°00' W 075°08'815.6
2017-Dec-11 04:30N 38°53' W 075°05'510.2
2017-Dec-11 04:00N 38°48' W 075°03'3 6.0
2017-Dec-11 03:30N 38°46' W 074°60'5 5.3
2017-Dec-11 02:33N 38°43' W 074°55'116 4.9
2017-Dec-10 03:06N 36°56' W 075°52'1 7.2
2017-Dec-10 03:00N 36°56' W 075°53'4 7.7
2017-Dec-10 02:30N 36°56' W 075°58'510.3
2017-Dec-10 02:01N 36°58' W 076°04'816.6
2017-Dec-10 01:30N 37°00' W 076°14'612.3
2017-Dec-10 01:00N 36°57' W 076°20'5 9.2
2017-Dec-10 00:30N 36°52' W 076°20'1 1.5
2017-Dec-10 00:00N 36°51' W 076°20'0 0.0
2017-Dec-09 23:30N 36°51' W 076°20'0 0.0
2017-Dec-09 23:00N 36°51' W 076°20'0 0.0
2017-Dec-09 22:30N 36°51' W 076°20'0 0.0
2017-Dec-09 22:00N 36°51' W 076°20'0 0.0
2017-Dec-09 21:30N 36°51' W 076°20'0 0.0
2017-Dec-09 21:00N 36°51' W 076°20'0 0.0
2017-Dec-09 20:30N 36°51' W 076°20'0 0.0
2017-Dec-09 20:00N 36°51' W 076°20'0 0.0
2017-Dec-09 19:30N 36°51' W 076°20'0 0.0
2017-Dec-09 19:00N 36°51' W 076°20'0 0.0
2017-Dec-09 18:30N 36°51' W 076°20'0 0.0
2017-Dec-09 17:57N 36°51' W 076°20'0 0.0
2017-Dec-09 17:30N 36°51' W 076°20'0 0.0
2017-Dec-09 17:00N 36°51' W 076°20'0 0.0
2017-Dec-09 16:30N 36°51' W 076°20'0 0.0
2017-Dec-09 16:00N 36°51' W 076°20'0 0.0
2017-Dec-09 15:30N 36°51' W 076°20'0 0.0
2017-Dec-09 15:00N 36°51' W 076°20'0 0.0
2017-Dec-09 14:30N 36°51' W 076°20'0 0.0
2017-Dec-09 14:00N 36°51' W 076°20'0 0.0
2017-Dec-09 13:30N 36°51' W 076°20'0 0.0
2017-Dec-09 13:00N 36°51' W 076°20'0 0.0
2017-Dec-09 12:30N 36°51' W 076°20'0 0.0
2017-Dec-09 12:00N 36°51' W 076°20'0 0.0
2017-Dec-09 11:30N 36°51' W 076°20'0 0.0
2017-Dec-09 11:00N 36°51' W 076°20'0 0.0
2017-Dec-09 10:30N 36°51' W 076°20'0 0.0
2017-Dec-09 10:00N 36°51' W 076°20'1 2.6
2017-Dec-09 09:30N 36°53' W 076°20'5 9.6
2017-Dec-09 09:00N 36°58' W 076°20'711.0
2017-Dec-09 08:21N 36°60' W 076°12'616.4
2017-Dec-09 08:00N 36°58' W 076°05'713.0
2017-Dec-09 07:30N 36°56' W 075°57'3 5.6
2017-Dec-09 07:00N 36°55' W 075°54'2 5.1
2017-Dec-09 06:30N 36°53' W 075°52'3 6.4
2017-Dec-09 05:58N 36°51' W 075°48'3 6.1
2017-Dec-09 05:28N 36°49' W 075°45'191 5.9
2017-Dec-07 21:21N 34°12' W 077°57'0 0.1
2017-Dec-07 19:46N 34°11' W 077°57'0 0.0
2017-Dec-07 15:58N 34°11' W 077°57'  

Dump ship's entire track history